MMSD/SJD METAR and TAF weather

Enter ICAO airport designator
Station Type Date Time Source
MMSD METAR 2019/08/22 19:42 UTC NOAA

MMSD 221942Z 00000KT 8SM OVC020 27/24 A2990 RMK 8/2// PCPN NE/BINOVC HZY


Station Type Date Time Source
MMSD Decoded METAR 2019/08/22 19:42 UTC NOAA

Station name not available
Aug 22, 2019 - 03:42 PM EDT / 2019.08.22 1942 UTC
Wind: Calm:0
Visibility: 8 mile(s):0
Sky conditions: overcast
Temperature: 80 F (27 C)
Dew Point: 75 F (24 C)
Relative Humidity: 83%
Pressure (altimeter): 29.9 in. Hg (1012 hPa)
ob: MMSD 221942Z 00000KT 8SM OVC020 27/24 A2990 RMK 8/2// PCPN NE/BINOVC HZY
cycle: 19

Station Type Date Time Source
MMSD TAF 2019/08/22 18:59 UTC NOAA

TAF COR MMSD 221758Z 2218/2318 14015KT P6SM VC RA BKN020 BKN080 BKN220
BECMG 2219/2220 6SM -RA BKN020CB
TEMPO 2220/2224 4SM TSRA
FM230000 14008KT 6SM -RA BKN020 OVC090
BECMG 2315/2316 15015KT

Example: see airport list